Time;durP1;ratioP1;P1;durP2;ratioP2;P2;SDS_P1;SDS_P2;PMS_P1;PMS_P2;Temp;Humidity;BMP_temperature;BMP_pressure;BME280_temperature;BME280_humidity;BME280_pressure;Samples;Min_cycle;Max_cycle;Signal;HPM_P1;HPM_P2
2024/01/24 00:00:16;;;;;;;1.35;0.73;;;7.00;99.90;;;6.91;100.00;100854.47;4911544;29;20655;-58
2024/01/24 00:02:48;;;;;;;0.90;0.80;;;6.80;99.90;;;6.75;100.00;100842.97;4912879;29;20671;-62
2024/01/24 00:05:17;;;;;;;4.63;1.25;;;6.80;99.90;;;7.02;100.00;100834.34;4915528;29;20610;-59
2024/01/24 00:07:46;;;;;;;0.80;0.50;;;6.90;99.90;;;6.27;100.00;100818.06;4913110;29;20223;-60
2024/01/24 00:10:14;;;;;;;2.28;1.80;;;6.50;99.90;;;6.23;100.00;100807.84;4918282;29;20205;-62
2024/01/24 00:12:44;;;;;;;1.30;0.95;;;6.30;99.90;;;6.15;100.00;100795.25;4912323;29;20189;-63
2024/01/24 00:15:13;;;;;;;2.72;0.80;;;6.20;99.90;;;6.08;100.00;100780.88;4916834;29;20219;-61
2024/01/24 00:17:42;;;;;;;0.80;0.52;;;6.00;99.90;;;6.14;100.00;100782.03;4916976;29;20566;-61
2024/01/24 00:20:12;;;;;;;1.13;0.80;;;6.10;99.90;;;6.17;100.00;100763.69;4917895;29;20222;-60
2024/01/24 00:22:41;;;;;;;2.35;0.88;;;6.10;99.90;;;6.21;100.00;100754.25;4916384;29;20273;-58
2024/01/24 00:25:09;;;;;;;0.80;0.50;;;6.20;99.90;;;6.51;100.00;100734.56;4914478;29;20279;-61
2024/01/24 00:27:38;;;;;;;2.55;1.15;;;6.30;99.90;;;6.50;100.00;100738.28;4916584;29;20238;-62
2024/01/24 00:30:10;;;;;;;1.65;1.55;;;6.40;99.90;;;6.11;100.00;100726.78;4916862;29;20194;-59
2024/01/24 00:32:38;;;;;;;1.40;0.75;;;6.10;99.90;;;6.25;100.00;100736.75;4904066;29;20736;-60
2024/01/24 00:35:08;;;;;;;1.70;1.50;;;6.20;99.90;;;6.22;100.00;100739.81;4911243;29;20192;-58
2024/01/24 00:37:36;;;;;;;2.42;1.58;;;6.10;99.90;;;6.19;100.00;100718.69;4909734;29;20274;-60
2024/01/24 00:40:07;;;;;;;0.90;0.50;;;6.10;99.90;;;6.06;100.00;100689.72;4909414;29;20282;-54
2024/01/24 00:42:36;;;;;;;1.27;0.70;;;6.10;99.90;;;5.95;100.00;100690.13;4908551;29;20203;-60
2024/01/24 00:45:06;;;;;;;0.80;0.60;;;6.00;99.90;;;6.14;100.00;100664.66;4916912;29;20643;-60
2024/01/24 00:47:35;;;;;;;1.02;0.63;;;6.10;99.90;;;6.33;100.00;100661.47;4916629;29;20262;-62
2024/01/24 00:50:05;;;;;;;1.17;0.60;;;6.20;99.90;;;6.62;100.00;100646.44;4907387;29;20227;-62
2024/01/24 00:52:34;;;;;;;1.02;0.93;;;6.40;99.90;;;6.94;100.00;100638.03;4904561;29;20200;-59
2024/01/24 00:55:03;;;;;;;5.22;1.23;;;6.70;99.90;;;7.22;100.00;100633.66;4898102;29;20261;-63
2024/01/24 00:57:31;;;;;;;1.70;1.60;;;6.90;99.90;;;7.10;100.00;100610.97;4905419;29;20225;-62
2024/01/24 01:00:01;;;;;;;1.35;0.88;;;6.90;99.90;;;6.75;100.00;100607.16;4905185;29;20630;-57
2024/01/24 01:02:29;;;;;;;1.10;0.80;;;6.90;99.90;;;6.80;100.00;100587.75;4903000;29;20197;-62
2024/01/24 01:04:59;;;;;;;0.90;0.60;;;6.80;99.90;;;6.68;100.00;100562.38;4915777;29;20353;-57
2024/01/24 01:07:27;;;;;;;3.28;1.40;;;6.70;99.90;;;6.30;100.00;100558.88;4906042;29;20225;-61
2024/01/24 01:09:56;;;;;;;1.90;0.95;;;6.40;99.90;;;6.23;100.00;100548.03;4916500;29;20195;-63
2024/01/24 01:12:24;;;;;;;2.05;1.30;;;6.30;99.90;;;6.28;100.00;100550.16;4904258;29;20544;-59
2024/01/24 01:14:53;;;;;;;4.35;1.17;;;6.20;99.90;;;6.42;100.00;100547.50;4903730;29;20561;-63
2024/01/24 01:17:21;;;;;;;1.00;0.80;;;6.30;99.90;;;6.54;100.00;100543.34;4902879;29;20226;-59
2024/01/24 01:19:50;;;;;;;1.15;0.82;;;6.40;99.90;;;6.42;100.00;100531.38;4909078;29;20205;-61
2024/01/24 01:22:21;;;;;;;0.93;0.57;;;6.40;99.90;;;6.41;100.00;100508.19;4913989;29;20608;-60
2024/01/24 01:24:49;;;;;;;0.98;0.70;;;6.30;1.00;;;6.51;100.00;100500.69;4909109;29;20579;-58
2024/01/24 01:27:18;;;;;;;0.90;0.70;;;6.40;99.90;;;6.77;100.00;100497.53;4916272;29;20770;-61
2024/01/24 01:29:46;;;;;;;2.00;0.73;;;6.60;99.90;;;7.11;100.00;100494.25;4911631;29;20219;-63
2024/01/24 01:32:15;;;;;;;2.10;1.10;;;6.90;1.00;;;6.99;100.00;100479.59;4914615;29;20611;-62
2024/01/24 01:34:43;;;;;;;1.00;0.73;;;6.80;99.90;;;7.41;100.00;100485.03;4916059;29;20199;-61
2024/01/24 01:37:12;;;;;;;2.58;1.85;;;7.20;99.90;;;7.18;100.00;100478.97;4907107;29;20224;-57
2024/01/24 01:39:42;;;;;;;0.90;0.70;;;7.10;1.00;;;7.30;100.00;100472.09;4909493;29;20283;-57
2024/01/24 01:42:10;;;;;;;2.30;0.80;;;7.10;99.90;;;7.13;100.00;100449.13;4900467;29;20227;-63
2024/01/24 01:44:46;;;;;;;1.02;0.60;;;7.10;99.90;;;6.91;100.00;100442.06;4912689;29;20231;-59
2024/01/24 01:47:15;;;;;;;1.10;0.60;;;6.90;99.90;;;6.68;100.00;100427.91;4909627;29;20771;-57
2024/01/24 01:49:46;;;;;;;0.90;0.70;;;6.70;99.90;;;7.23;100.00;100438.03;4916787;29;20212;-57
2024/01/24 01:52:16;;;;;;;0.80;0.52;;;6.90;1.00;;;7.17;100.00;100415.41;4918844;29;20359;-54
2024/01/24 01:54:48;;;;;;;0.80;0.50;;;7.00;1.00;;;7.17;100.00;100401.13;4906136;29;20271;-56
2024/01/24 01:57:17;;;;;;;6.25;1.67;;;7.10;1.00;;;7.17;100.00;100411.91;4909493;29;20254;-53
2024/01/24 01:59:46;;;;;;;0.80;0.50;;;7.10;1.00;;;7.10;100.00;100406.47;4918462;29;20199;-59
2024/01/24 02:02:16;;;;;;;6.93;0.73;;;7.00;1.00;;;7.34;100.00;100400.69;4917168;29;20254;-55
2024/01/24 02:04:45;;;;;;;0.90;0.63;;;7.20;1.00;;;7.33;100.00;100382.88;4920219;29;20299;-58
2024/01/24 02:07:13;;;;;;;2.35;0.80;;;7.20;1.00;;;7.34;100.00;100381.84;4917428;29;20225;-59
2024/01/24 02:09:43;;;;;;;1.10;0.82;;;7.30;1.00;;;7.45;100.00;100371.59;4913671;29;20280;-58
2024/01/24 02:12:12;;;;;;;0.80;0.57;;;7.40;1.00;;;7.71;100.00;100356.47;4919596;29;20200;-59
2024/01/24 02:14:41;;;;;;;1.15;0.55;;;7.60;99.90;;;7.28;100.00;100355.72;4904955;29;20568;-58
2024/01/24 02:17:10;;;;;;;1.05;0.60;;;7.40;99.90;;;7.09;100.00;100350.97;4910735;29;20258;-59
2024/01/24 02:19:38;;;;;;;0.90;0.60;;;7.20;99.90;;;7.57;100.00;100373.56;4919650;29;20614;-61
2024/01/24 02:22:07;;;;;;;0.80;0.50;;;7.40;99.90;;;7.70;100.00;100364.72;4919801;29;20212;-58
2024/01/24 02:27:13;;;;;;;1.45;1.35;;;7.70;99.90;;;7.57;100.00;100343.09;4916721;29;20257;-59
2024/01/24 02:29:41;;;;;;;0.90;0.50;;;7.60;99.90;;;7.52;100.00;100346.38;4915250;29;20672;-58
2024/01/24 02:32:10;;;;;;;1.10;0.60;;;7.50;99.90;;;8.19;100.00;100343.06;4915144;29;20229;-58
2024/01/24 02:34:39;;;;;;;0.90;0.50;;;7.80;99.90;;;8.25;100.00;100329.63;4915478;29;20201;-59
2024/01/24 02:37:08;;;;;;;1.00;0.63;;;7.90;99.90;;;7.88;100.00;100319.28;4905795;29;20242;-55
2024/01/24 02:39:38;;;;;;;1.10;0.60;;;7.80;99.90;;;8.80;100.00;100321.53;4917883;29;20665;-60
2024/01/24 02:42:08;;;;;;;0.90;0.52;;;8.40;99.90;;;8.07;100.00;100313.16;4919789;29;20204;-58
2024/01/24 02:44:37;;;;;;;1.33;0.60;;;8.10;99.90;;;8.01;100.00;100303.19;4914074;29;20220;-55
2024/01/24 02:47:06;;;;;;;1.52;1.23;;;8.00;99.90;;;8.38;100.00;100298.38;4918384;29;20217;-59
2024/01/24 02:49:35;;;;;;;1.80;1.25;;;8.20;99.90;;;8.15;100.00;100288.72;4912912;29;20209;-58
2024/01/24 02:52:05;;;;;;;0.80;0.50;;;8.10;99.90;;;7.92;100.00;100276.59;4917512;29;20359;-60
2024/01/24 02:54:36;;;;;;;0.80;0.60;;;8.00;99.90;;;8.25;100.00;100278.41;4918236;29;20295;-59
2024/01/24 02:57:06;;;;;;;0.90;0.70;;;8.10;99.90;;;8.51;100.00;100261.53;4914332;29;20244;-60
2024/01/24 02:59:35;;;;;;;1.17;0.60;;;8.20;99.90;;;8.70;100.00;100257.19;4913193;29;20201;-58
2024/01/24 03:02:03;;;;;;;1.00;0.70;;;8.50;99.90;;;8.18;100.00;100245.19;4911900;29;20205;-57
2024/01/24 03:04:32;;;;;;;1.70;0.70;;;8.30;99.90;;;8.37;100.00;100249.03;4916120;29;20292;-52
2024/01/24 03:07:00;;;;;;;0.80;0.52;;;8.20;99.90;;;8.36;100.00;100252.78;4917128;29;20214;-56
2024/01/24 03:09:29;;;;;;;1.40;0.80;;;8.30;99.90;;;8.70;100.00;100244.53;4909509;29;20216;-54
2024/01/24 03:11:57;;;;;;;1.33;0.75;;;8.50;99.90;;;8.62;100.00;100247.41;4905567;29;20202;-60
2024/01/24 03:14:27;;;;;;;1.20;0.60;;;8.60;99.90;;;8.60;100.00;100243.28;4919083;29;20662;-55
2024/01/24 03:16:57;;;;;;;2.35;1.23;;;8.50;99.90;;;8.93;100.00;100236.03;4915678;29;20225;-57
2024/01/24 03:19:26;;;;;;;2.60;1.00;;;8.60;99.90;;;9.28;100.00;100235.81;4913851;29;20193;-57
2024/01/24 03:21:54;;;;;;;0.90;0.65;;;9.00;99.90;;;9.16;100.00;100239.16;4919967;29;20226;-55
2024/01/24 03:24:23;;;;;;;0.80;0.60;;;9.00;99.90;;;9.22;100.00;100239.34;4918873;29;20313;-59
2024/01/24 03:26:52;;;;;;;1.58;1.33;;;9.00;99.90;;;8.86;100.00;100232.50;4919005;29;20193;-57
2024/01/24 03:29:20;;;;;;;0.80;0.40;;;8.90;99.90;;;8.78;100.00;100224.63;4912915;29;20666;-54
2024/01/24 03:31:50;;;;;;;0.80;0.50;;;8.70;99.90;;;8.95;100.00;100212.38;4911416;29;20662;-59
2024/01/24 03:34:19;;;;;;;3.50;2.25;;;8.80;99.90;;;9.49;100.00;100222.06;4906324;29;20225;-54
2024/01/24 03:36:48;;;;;;;1.27;0.60;;;9.10;99.90;;;9.09;100.00;100221.31;4917757;29;20190;-58
2024/01/24 03:39:16;;;;;;;0.80;0.50;;;8.90;99.90;;;8.95;100.00;100231.28;4912829;29;20193;-58
2024/01/24 03:41:45;;;;;;;0.80;0.50;;;8.90;99.90;;;8.90;100.00;100217.56;4916317;29;20189;-60
2024/01/24 03:44:13;;;;;;;0.80;0.50;;;8.80;99.90;;;8.79;100.00;100215.50;4917040;29;20189;-55
2024/01/24 03:46:42;;;;;;;1.10;0.85;;;8.70;99.90;;;8.98;100.00;100216.53;4918132;29;20543;-60
2024/01/24 03:49:12;;;;;;;0.80;0.50;;;8.80;99.90;;;9.27;100.00;100197.19;4919404;29;20194;-60
2024/01/24 03:51:41;;;;;;;1.00;0.70;;;9.00;99.90;;;9.30;100.00;100212.13;4913000;29;20673;-52
2024/01/24 03:54:22;;;;;;;1.40;0.60;;;9.20;99.90;;;9.24;100.00;100191.38;4915230;29;20200;-59
2024/01/24 03:56:50;;;;;;;0.90;0.73;;;9.20;99.90;;;9.88;100.00;100194.06;4914758;29;20205;-60
2024/01/24 03:59:19;;;;;;;0.80;0.50;;;9.50;99.90;;;9.43;100.00;100185.94;4907535;29;20860;-61
2024/01/24 04:01:47;;;;;;;0.90;0.75;;;9.40;99.90;;;9.62;100.00;100183.38;4915160;29;20733;-60
2024/01/24 04:04:17;;;;;;;1.00;0.50;;;9.40;99.90;;;9.43;100.00;100172.44;4915448;29;20197;-60
2024/01/24 04:06:46;;;;;;;1.00;0.60;;;9.40;99.90;;;9.67;100.00;100165.50;4917140;29;20633;-60
2024/01/24 04:09:15;;;;;;;0.90;0.50;;;9.50;99.90;;;9.69;100.00;100166.09;4919519;29;20489;-57
2024/01/24 04:11:44;;;;;;;4.40;0.70;;;9.50;99.90;;;9.37;100.00;100145.44;4911851;29;20473;-59
2024/01/24 04:14:12;;;;;;;0.90;0.60;;;9.40;99.90;;;9.63;100.00;100148.06;4906829;29;20446;-59
2024/01/24 04:16:41;;;;;;;0.80;0.50;;;9.40;99.90;;;9.63;100.00;100141.84;4910571;29;20197;-58
2024/01/24 04:19:10;;;;;;;1.43;0.60;;;9.50;99.90;;;9.47;100.00;100132.34;4916535;29;20437;-57
2024/01/24 04:21:43;;;;;;;1.87;0.60;;;9.40;99.90;;;10.26;100.00;100127.34;4908393;29;20461;-54
2024/01/24 04:24:12;;;;;;;1.10;0.60;;;10.00;99.90;;;9.85;100.00;100130.50;4916754;29;20934;-60
2024/01/24 04:26:41;;;;;;;0.80;0.60;;;9.80;99.90;;;9.83;100.00;100113.66;4911715;29;20512;-57
2024/01/24 04:29:09;;;;;;;0.90;0.53;;;9.60;99.90;;;10.20;100.00;100095.81;4918270;29;20190;-62
2024/01/24 04:31:42;;;;;;;1.13;0.60;;;10.00;99.90;;;9.75;100.00;100086.91;4914725;29;20440;-57
2024/01/24 04:34:11;;;;;;;2.83;0.90;;;9.70;99.90;;;9.81;100.00;100090.63;4915198;29;20427;-59
2024/01/24 04:36:39;;;;;;;4.40;1.00;;;9.70;99.90;;;9.70;100.00;100086.72;4915337;29;20430;-58
2024/01/24 04:39:10;;;;;;;0.80;0.60;;;9.60;99.90;;;9.73;100.00;100102.47;4912808;29;20534;-58
2024/01/24 04:41:38;;;;;;;1.47;1.37;;;9.50;99.90;;;9.79;100.00;100103.50;4911168;29;20430;-57
2024/01/24 04:44:08;;;;;;;0.90;0.60;;;9.60;99.90;;;9.86;100.00;100093.50;4916038;29;20759;-53
2024/01/24 04:46:37;;;;;;;0.90;0.50;;;9.70;99.90;;;9.90;100.00;100090.13;4909306;29;20525;-55
2024/01/24 04:49:05;;;;;;;0.90;0.77;;;9.70;99.90;;;10.00;100.00;100078.84;4909483;29;20461;-60
2024/01/24 04:51:34;;;;;;;2.67;1.17;;;9.80;99.90;;;10.58;100.00;100082.19;4908476;29;20441;-61
2024/01/24 04:54:03;;;;;;;2.37;0.97;;;10.10;99.90;;;10.17;100.00;100076.47;4908239;29;20435;-60
2024/01/24 04:56:33;;;;;;;1.00;0.50;;;10.00;99.90;;;9.89;100.00;100072.25;4912049;29;20433;-55
2024/01/24 04:59:02;;;;;;;2.83;0.50;;;9.80;99.90;;;10.05;100.00;100065.50;4916103;29;20433;-58
2024/01/24 05:01:37;;;;;;;1.40;1.17;;;9.90;99.90;;;10.17;100.00;100054.84;4911033;29;20851;-60
2024/01/24 05:04:06;;;;;;;0.80;0.50;;;10.00;99.90;;;10.39;100.00;100050.72;4916751;29;20959;-59
2024/01/24 05:06:35;;;;;;;2.70;1.07;;;10.20;99.90;;;10.25;100.00;100060.81;4911529;29;20472;-59
2024/01/24 05:09:04;;;;;;;1.13;0.60;;;10.20;99.90;;;10.30;100.00;100057.47;4916355;29;20446;-57
2024/01/24 05:11:34;;;;;;;1.63;0.97;;;10.20;99.90;;;10.54;100.00;100053.09;4915700;29;20445;-56
2024/01/24 05:14:03;;;;;;;1.13;0.50;;;10.30;99.90;;;10.50;100.00;100052.72;4906785;29;20546;-58
2024/01/24 05:16:31;;;;;;;1.00;0.80;;;10.30;99.90;;;10.25;100.00;100050.00;4909635;29;20489;-59
2024/01/24 05:18:59;;;;;;;0.80;0.50;;;10.30;99.90;;;10.20;100.00;100046.31;4917131;29;20541;-60
2024/01/24 05:21:28;;;;;;;4.30;1.43;;;10.20;99.90;;;10.04;100.00;100043.06;4904585;29;20893;-60
2024/01/24 05:23:57;;;;;;;0.90;0.60;;;10.00;99.90;;;10.23;100.00;100035.88;4909470;29;20496;-56
2024/01/24 05:26:25;;;;;;;1.53;1.17;;;10.10;99.90;;;10.09;100.00;100038.88;4909945;29;20508;-55
2024/01/24 05:28:55;;;;;;;0.90;0.50;;;10.00;99.90;;;10.21;100.00;100037.16;4912815;29;20472;-58
2024/01/24 05:31:24;;;;;;;2.57;2.10;;;10.10;99.90;;;10.65;100.00;100012.56;4909188;29;20808;-57
2024/01/24 05:33:55;;;;;;;2.80;0.70;;;10.30;99.90;;;10.32;100.00;100014.78;4906380;29;20859;-58
2024/01/24 05:36:24;;;;;;;0.80;0.50;;;10.30;99.90;;;10.46;100.00;99997.38;4909894;29;20460;-60
2024/01/24 05:38:52;;;;;;;1.10;0.60;;;10.30;99.90;;;10.52;100.00;100011.91;4913080;29;20509;-59
2024/01/24 05:41:21;;;;;;;1.63;1.50;;;10.40;99.90;;;10.74;100.00;100011.25;4915429;29;20833;-56
2024/01/24 05:43:50;;;;;;;1.57;0.70;;;10.60;99.90;;;10.53;100.00;100008.97;4908734;29;20779;-60
2024/01/24 05:46:20;;;;;;;1.47;0.70;;;10.40;99.90;;;10.38;100.00;100011.19;4908393;29;20811;-56
2024/01/24 05:48:48;;;;;;;1.83;1.00;;;10.30;99.90;;;10.35;100.00;99995.44;4910640;29;20469;-61
2024/01/24 05:51:17;;;;;;;0.80;0.47;;;10.30;99.90;;;10.13;100.00;99991.41;4916196;29;20929;-57
2024/01/24 05:53:45;;;;;;;1.90;0.77;;;10.20;99.90;;;10.04;100.00;99990.88;4909500;29;20433;-60
2024/01/24 05:56:14;;;;;;;4.20;0.70;;;10.00;99.90;;;10.02;100.00;99995.69;4907825;29;20441;-50
2024/01/24 05:58:42;;;;;;;0.90;0.50;;;10.00;99.90;;;9.96;100.00;99991.16;4915060;29;20524;-59
2024/01/24 06:01:11;;;;;;;1.33;0.80;;;9.90;99.90;;;9.96;100.00;99985.75;4909251;29;20435;-62
2024/01/24 06:03:42;;;;;;;0.80;0.60;;;9.90;99.90;;;9.84;100.00;99993.72;4914341;29;20449;-61
2024/01/24 06:06:11;;;;;;;0.93;0.50;;;9.80;99.90;;;9.88;100.00;99994.09;4914318;29;20501;-58
2024/01/24 06:08:40;;;;;;;1.20;0.70;;;9.80;99.90;;;9.85;100.00;99968.38;4907796;29;20494;-58
2024/01/24 06:11:09;;;;;;;1.08;0.60;;;9.80;99.90;;;9.87;100.00;99987.06;4910274;29;20441;-58
2024/01/24 06:13:38;;;;;;;1.15;0.80;;;9.80;99.90;;;9.71;100.00;99977.63;4913199;29;20190;-59
2024/01/24 06:16:06;;;;;;;0.90;0.60;;;9.70;99.90;;;9.84;100.00;99979.38;4911924;29;20186;-57
2024/01/24 06:18:35;;;;;;;0.93;0.73;;;9.70;99.90;;;9.84;100.00;99974.81;4911328;29;20501;-59
2024/01/24 06:21:05;;;;;;;0.90;0.60;;;9.70;1.00;;;9.86;100.00;99963.78;4914814;29;20197;-61
2024/01/24 06:23:34;;;;;;;2.38;0.95;;;9.70;1.00;;;9.86;100.00;99972.72;4907045;29;20477;-59
2024/01/24 06:26:03;;;;;;;0.80;0.50;;;9.80;1.00;;;9.91;100.00;99978.31;4911496;29;20205;-58
2024/01/24 06:28:33;;;;;;;1.27;0.60;;;9.80;1.00;;;9.93;100.00;99981.59;4909664;29;20482;-59
2024/01/24 06:31:01;;;;;;;0.80;0.50;;;9.80;1.00;;;9.92;100.00;99968.31;4916300;29;20446;-59
2024/01/24 06:33:30;;;;;;;0.80;0.50;;;9.80;1.00;;;9.85;100.00;99956.72;4911206;29;20544;-60
2024/01/24 06:35:58;;;;;;;0.90;0.60;;;9.80;99.90;;;9.90;100.00;99937.97;4915506;29;20217;-59
2024/01/24 06:38:28;;;;;;;1.23;1.00;;;9.80;1.00;;;9.89;100.00;99942.56;4919395;29;20221;-60
2024/01/24 06:40:57;;;;;;;1.70;1.37;;;9.80;99.90;;;9.94;100.00;99950.00;4919092;29;20492;-58
2024/01/24 06:43:26;;;;;;;1.67;0.60;;;9.80;99.90;;;10.04;100.00;99950.31;4913629;29;20445;-56
2024/01/24 06:45:55;;;;;;;0.90;0.60;;;9.90;99.90;;;10.07;100.00;99949.88;4920523;29;20429;-60
2024/01/24 06:48:23;;;;;;;1.87;1.07;;;9.90;99.90;;;10.16;100.00;99974.81;4911529;29;20480;-60
2024/01/24 06:50:54;;;;;;;0.80;0.50;;;10.00;99.90;;;10.20;100.00;99997.63;4920027;29;20445;-58
2024/01/24 06:53:22;;;;;;;0.80;0.43;;;10.00;99.90;;;10.17;100.00;100035.91;4915283;29;20453;-59
2024/01/24 06:55:52;;;;;;;0.90;0.70;;;10.10;99.90;;;10.15;100.00;100114.53;4914630;29;21011;-59
2024/01/24 06:58:21;;;;;;;0.80;0.50;;;10.10;99.90;;;10.09;100.00;100139.72;4919156;29;20465;-59
2024/01/24 07:00:49;;;;;;;1.10;0.60;;;10.00;99.90;;;9.86;100.00;100134.03;4907622;29;20766;-54
2024/01/24 07:03:18;;;;;;;0.90;0.60;;;9.90;99.90;;;9.76;100.00;100125.56;4914777;29;20419;-59
2024/01/24 07:05:51;;;;;;;0.90;0.60;;;9.80;1.00;;;9.74;100.00;100084.41;4914474;29;20451;-58
2024/01/24 07:08:20;;;;;;;1.37;1.07;;;9.70;13.50;;;9.77;100.00;100095.63;4906521;29;20485;-58
2024/01/24 07:10:48;;;;;;;1.10;0.60;;;9.70;1.00;;;9.68;100.00;100091.53;4918326;29;20441;-59
2024/01/24 07:13:19;;;;;;;1.50;0.68;;;9.60;1.00;;;9.56;100.00;100088.66;4918793;29;20566;-60
2024/01/24 07:15:47;;;;;;;1.65;0.60;;;9.60;99.90;;;9.48;100.00;100093.50;4914814;29;20200;-60
2024/01/24 07:18:16;;;;;;;4.20;1.00;;;9.50;99.90;;;9.42;100.00;100083.53;4918237;29;20221;-54
2024/01/24 07:20:45;;;;;;;0.80;0.50;;;9.40;99.90;;;9.40;100.00;100096.41;4909780;29;20953;-61
2024/01/24 07:23:14;;;;;;;0.85;0.50;;;9.40;99.90;;;9.37;100.00;100091.44;4913561;29;20197;-56
2024/01/24 07:25:42;;;;;;;0.80;0.60;;;9.30;99.90;;;9.39;100.00;100094.78;4917373;29;20198;-60
2024/01/24 07:28:11;;;;;;;0.80;0.52;;;9.30;99.90;;;9.36;100.00;100097.88;4914834;29;20282;-57
2024/01/24 07:30:41;;;;;;;0.90;0.75;;;9.30;99.90;;;9.32;100.00;100113.69;4912820;29;20241;-59
2024/01/24 07:33:09;;;;;;;6.68;0.80;;;9.30;99.90;;;9.36;100.00;100092.47;4912965;29;20256;-58
2024/01/24 07:35:40;;;;;;;4.80;1.60;;;9.30;99.90;;;9.43;100.00;100094.13;4908104;29;20194;-60
2024/01/24 07:38:08;;;;;;;1.13;1.03;;;9.40;99.90;;;9.52;100.00;100089.31;4906781;29;20325;-55
2024/01/24 07:40:37;;;;;;;1.48;0.98;;;9.40;99.90;;;9.47;100.00;100094.53;4911604;29;20937;-60
2024/01/24 07:43:06;;;;;;;1.33;1.03;;;9.40;99.90;;;9.55;100.00;100092.41;4912107;29;20570;-55
2024/01/24 07:45:36;;;;;;;2.88;2.58;;;9.50;99.90;;;9.67;100.00;100089.88;4912453;29;20441;-56
2024/01/24 07:48:13;;;;;;;1.70;1.45;;;9.60;99.90;;;9.68;100.00;100102.34;4914491;29;20740;-58
2024/01/24 07:50:42;;;;;;;1.02;0.75;;;9.60;99.90;;;9.71;100.00;100101.06;4913500;29;20204;-60
2024/01/24 07:53:12;;;;;;;1.30;0.90;;;9.70;99.90;;;9.66;100.00;100103.56;4913323;29;20285;-59
2024/01/24 07:56:26;;;;;;;1.73;1.63;;;9.60;99.90;;;9.68;100.00;100091.53;4914077;29;20752;-58
2024/01/24 07:58:55;;;;;;;1.08;0.73;;;9.60;99.90;;;9.70;100.00;100096.69;4912585;29;20867;-60
2024/01/24 08:01:24;;;;;;;1.23;1.00;;;9.70;99.90;;;9.74;100.00;100092.50;4914706;29;20273;-61
2024/01/24 08:03:55;;;;;;;2.50;1.77;;;9.70;99.90;;;9.83;100.00;100089.34;4915312;29;20201;-54
2024/01/24 08:06:23;;;;;;;1.93;1.00;;;9.80;99.90;;;9.74;100.00;100085.25;4913831;29;20488;-54
2024/01/24 08:08:52;;;;;;;0.87;0.60;;;9.70;99.90;;;9.79;100.00;100093.53;4913781;29;20436;-58
2024/01/24 08:11:22;;;;;;;5.07;1.77;;;9.80;99.90;;;9.88;100.00;100088.69;4914839;29;20437;-58
2024/01/24 08:13:51;;;;;;;2.40;1.97;;;9.80;99.90;;;9.86;100.00;100082.69;4913469;29;20434;-58
2024/01/24 08:16:21;;;;;;;2.20;1.23;;;9.80;99.90;;;9.89;100.00;100088.47;4918732;29;20999;-59
2024/01/24 08:18:50;;;;;;;4.55;1.10;;;9.80;99.90;;;9.95;100.00;100087.63;4920046;29;20458;-59
2024/01/24 08:21:20;;;;;;;1.67;1.57;;;9.90;99.90;;;10.09;100.00;100092.94;4915455;29;20212;-60
2024/01/24 08:23:48;;;;;;;1.60;0.80;;;10.00;99.90;;;10.18;100.00;100086.25;4909925;29;20462;-57
2024/01/24 08:26:19;;;;;;;1.03;0.87;;;10.00;99.90;;;10.45;100.00;100093.13;4915045;29;20444;-57
2024/01/24 08:28:48;;;;;;;1.20;0.90;;;10.20;99.90;;;10.54;100.00;100072.03;4910366;29;20475;-60
2024/01/24 08:31:17;;;;;;;1.17;0.97;;;10.30;99.90;;;10.64;100.00;100083.16;4914571;29;20777;-59
2024/01/24 08:33:48;;;;;;;1.00;0.70;;;10.40;99.90;;;10.79;100.00;100087.19;4913411;29;20448;-55
2024/01/24 08:36:21;;;;;;;1.00;0.60;;;10.50;99.90;;;10.79;100.00;100079.06;4913617;29;20412;-58
2024/01/24 08:38:50;;;;;;;2.07;1.20;;;10.60;99.90;;;10.81;100.00;100081.53;4910882;29;20505;-55
2024/01/24 08:41:19;;;;;;;1.00;0.80;;;10.60;99.90;;;10.98;100.00;100106.16;4912881;29;20415;-56
2024/01/24 08:43:47;;;;;;;1.90;1.33;;;10.70;99.90;;;10.81;100.00;100114.84;4911092;29;20465;-57
2024/01/24 08:46:17;;;;;;;11.33;1.93;;;10.70;99.90;;;10.76;100.00;100139.03;4913703;29;20408;-58
2024/01/24 08:48:45;;;;;;;4.93;0.97;;;10.60;99.90;;;10.59;100.00;100208.28;4916668;29;20475;-58
2024/01/24 08:51:14;;;;;;;3.70;0.97;;;10.50;99.90;;;10.33;100.00;100224.69;4918296;29;20418;-58
2024/01/24 08:53:44;;;;;;;0.80;0.50;;;10.30;99.90;;;9.69;100.00;100206.63;4915094;29;20524;-61
2024/01/24 08:56:14;;;;;;;2.47;0.90;;;9.80;99.90;;;9.61;100.00;100187.97;4915918;29;20505;-61
2024/01/24 08:58:43;;;;;;;0.90;0.50;;;9.60;99.90;;;9.64;100.00;100187.53;4912969;29;20232;-58
2024/01/24 09:01:11;;;;;;;3.67;3.20;;;9.60;99.90;;;9.70;100.00;100180.44;4917096;29;20202;-58
2024/01/24 09:03:40;;;;;;;0.90;0.80;;;9.60;99.90;;;9.73;100.00;100202.44;4914780;29;20197;-60
2024/01/24 09:06:10;;;;;;;1.30;0.73;;;9.60;99.90;;;9.67;100.00;100207.91;4919223;29;20186;-60
2024/01/24 09:08:40;;;;;;;3.15;1.58;;;9.60;99.90;;;9.56;100.00;100202.09;4918982;29;20245;-59
2024/01/24 09:11:10;;;;;;;1.67;0.80;;;9.50;99.90;;;9.43;100.00;100201.31;4918957;29;20568;-59
2024/01/24 09:13:39;;;;;;;0.80;0.60;;;;;;;9.39;100.00;100209.00;4917182;29;20442;-61
2024/01/24 09:16:08;;;;;;;0.80;0.50;;;;;;;9.42;100.00;100205.06;4915145;29;20198;-53
2024/01/24 09:18:41;;;;;;;2.33;1.75;;;9.30;99.90;;;9.47;100.00;100224.16;4910201;29;20217;-56
2024/01/24 09:21:10;;;;;;;4.60;0.85;;;9.40;99.90;;;9.51;100.00;100222.69;4911386;29;20199;-57
2024/01/24 09:23:42;;;;;;;1.38;1.27;;;9.40;99.90;;;9.53;100.00;100193.59;4903000;29;20658;-57
2024/01/24 09:26:13;;;;;;;2.45;0.90;;;9.40;99.90;;;9.66;97.75;100203.53;4910112;29;20193;-59
2024/01/24 09:28:41;;;;;;;1.02;0.77;;;9.50;99.90;;;9.74;95.54;100201.41;4906915;29;20225;-60
2024/01/24 09:31:10;;;;;;;4.00;0.93;;;9.60;99.90;;;9.75;94.74;100197.69;4916986;29;20648;-56
2024/01/24 09:33:38;;;;;;;1.47;0.73;;;9.60;99.90;;;9.83;95.05;100200.13;4927676;29;20199;-61
2024/01/24 09:36:08;;;;;;;2.30;1.45;;;9.70;99.90;;;9.94;94.20;100183.25;4914385;29;20492;-56
2024/01/24 09:38:37;;;;;;;2.87;1.50;;;9.80;99.90;;;10.06;95.05;100221.25;4911343;29;20714;-57
2024/01/24 09:41:17;;;;;;;8.93;1.23;;;9.90;99.90;;;10.15;93.61;100200.19;4914126;29;20412;-56
2024/01/24 09:43:49;;;;;;;6.33;2.00;;;10.00;99.90;;;10.22;96.15;100190.19;4908201;29;20429;-62
2024/01/24 09:46:19;;;;;;;4.00;1.27;;;10.10;99.90;;;10.20;95.49;100213.94;4916041;29;20437;-62
2024/01/24 09:48:48;;;;;;;2.13;1.73;;;10.10;99.90;;;10.25;97.34;100206.84;4912444;29;20474;-59
2024/01/24 09:51:17;;;;;;;2.47;0.50;;;10.10;99.90;;;10.32;97.48;100212.19;4908851;29;20439;-59
2024/01/24 09:53:49;;;;;;;1.90;0.60;;;10.20;99.90;;;10.24;97.04;100210.59;4906189;29;20198;-56
2024/01/24 09:56:22;;;;;;;11.93;3.80;;;10.20;99.90;;;10.17;97.98;100209.78;4912170;29;20439;-60
2024/01/24 09:58:51;;;;;;;2.83;1.33;;;10.10;99.90;;;10.26;97.16;100215.78;4910315;29;20453;-59
2024/01/24 10:01:21;;;;;;;5.23;1.93;;;10.10;99.90;;;10.40;96.85;100220.06;4915643;29;20453;-59
2024/01/24 10:03:54;;;;;;;1.10;0.80;;;10.20;99.90;;;10.55;96.92;100223.31;4913381;29;20901;-60
2024/01/24 10:06:25;;;;;;;3.47;1.70;;;10.40;99.90;;;10.72;97.60;100219.00;4915635;29;20433;-61
2024/01/24 10:08:53;;;;;;;2.20;1.20;;;10.50;99.90;;;10.79;96.97;100222.50;4916083;29;20491;-59
2024/01/24 10:11:24;;;;;;;1.10;0.60;;;10.60;99.90;;;10.83;97.11;100215.59;4916802;29;20955;-60
2024/01/24 10:13:57;;;;;;;1.23;1.13;;;10.60;99.90;;;10.88;97.06;100226.59;4916405;29;20469;-59
2024/01/24 10:16:28;;;;;;;0.80;0.50;;;10.70;99.90;;;10.98;97.80;100233.41;4914407;29;20451;-60
2024/01/24 10:18:57;;;;;;;1.30;0.87;;;10.80;99.90;;;11.06;96.17;100225.00;4913274;29;20469;-60
2024/01/24 10:21:27;;;;;;;1.90;0.50;;;10.90;99.90;;;11.06;95.59;100223.09;4916353;29;20441;-63
2024/01/24 10:23:57;;;;;;;4.30;1.57;;;10.90;99.90;;;10.90;96.78;100229.06;4915079;29;20840;-61
2024/01/24 10:26:29;;;;;;;2.00;0.77;;;10.80;99.90;;;10.99;96.21;100229.66;4912998;29;20446;-54
2024/01/24 10:28:58;;;;;;;1.70;0.70;;;10.80;99.90;;;11.03;95.93;100236.28;4911826;29;21008;-59